Altus, OK

7:56 AM CST on February 23, 2017 (GMT -0600)
Airplane Park | | Change Station
Active Advisory: Fire Weather Warning

Elev 1391 ft 34.64 °N, 99.32 °W | Updated 31 seconds ago

Clear
Clear
52.7 °F
Feels Like 52.7 °F
N
5.8
Wind Variable Wind from WSW
Gusts 7.4 mph

Today
High -- | Low -- °F
--% Chance of Precip.
Yesterday
High -- | Low -- °F
Precip. -- in
Pressure 29.56 in
Visibility 10.0 miles
Clouds Clear
Dew Point 40 °F
Humidity 63%
Rainfall 0.00 in
Snow Depth Not available.
7:13 AM 6:28 PM
Waning Crescent, 10% visible
METAR KLTS 231258Z AUTO 28006KT 10SM CLR 10/05 A2957 RMK AO2 SLP008 T01010047
Pressure 29.56 in
Visibility 10.0 miles
Clouds Clear
Dew Point 40 °F
Humidity 63%
Rainfall 0.00 in
Snow Depth Not available.
7:13 AM 6:28 PM
Waning Crescent, 10% visible
METAR KLTS 231258Z AUTO 28006KT 10SM CLR 10/05 A2957 RMK AO2 SLP008 T01010047

Get Your Daily Forecast Email!

Thanks for signing up!

Be on the lookout for a verification email in your inbox.

You'll start receiving the daily forecast at 8 AM.

×

10-Day Weather Forecast

Almanac

Astronomy

Feb. 23, 2017 Rise Set
Actual Time
Civil Twilight
Nautical Twilight
Astronomical Twilight
Moon
Length of Visible Light
Length of Day
Tomorrow will be .
, % of the Moon is Illuminated

Today's Extremes

State Highs State Lows

Community

WunderPhotos

Upload Photos

1,962,540 photos uploaded!

WunderBlog® & News

Nearby

Air Quality

  Air Quality AQ Index Pollutant
Not available.

Snow Depth

Station Depth Elevation

Earthquake Activity

City Distance Mag. Time & Date
Minimum magnitude displayed is 2.5.

Coastal Water Temperatures

Place Temperature

Stations

Nearby Weather Stations

Station Location Temp. Windchill Dew Point Humidity Wind Precip. Elev Updated Type
                   

Watches & Warnings

Fire Weather Warning
Issued: 3:45 AM CST Feb. 23, 2017 – National Weather Service

... Red flag warning remains in effect from 10 am this morning to
9 PM CST this evening for windy conditions... warm temperatures
and low relative humidity for western Oklahoma and far western
North Texas...

* timing... late Thursday morning through Thursday evening.

* Wind... west to southwest, 20 to 25 mph, with gusts to 45 mph.

* Humidity... 10 to 20 percent.

* Temperature... mid 80s to 90.

* Impacts... any fires that develop will likely spread rapidly.
Outdoor burning is strongly discouraged.

Precautionary/preparedness actions...

A red flag warning means that critical fire weather conditions
are either occurring now, or will shortly. A combination of
strong winds, low relative humidity, and warm temperatures can
contribute to extreme fire behavior.



Mahale